createdAt,value
2018-09-21T00:01:45.129Z,11.30
2018-09-21T00:04:14.845Z,9.55
2018-09-21T00:06:43.938Z,8.68
2018-09-21T00:09:13.387Z,7.92
2018-09-21T00:11:42.275Z,8.48
2018-09-21T00:14:11.623Z,8.48
2018-09-21T00:16:40.560Z,9.53
2018-09-21T00:19:09.705Z,7.20
2018-09-21T00:21:38.642Z,8.48
2018-09-21T00:24:07.619Z,8.45
2018-09-21T00:26:36.588Z,8.95
2018-09-21T00:29:05.501Z,8.35
2018-09-21T00:31:34.425Z,8.53
2018-09-21T00:34:03.329Z,11.48
2018-09-21T00:36:32.275Z,10.05
2018-09-21T00:39:01.206Z,10.80
2018-09-21T00:41:30.115Z,8.28
2018-09-21T00:43:59.166Z,9.10
2018-09-21T00:46:28.054Z,7.35
2018-09-21T00:48:57.042Z,7.37
2018-09-21T00:51:26.132Z,9.18
2018-09-21T00:53:55.082Z,8.35
2018-09-21T00:56:24.015Z,10.35
2018-09-21T00:58:52.996Z,9.38
2018-09-21T01:01:21.910Z,8.63
2018-09-21T01:03:50.828Z,8.20
2018-09-21T01:06:19.906Z,8.75
2018-09-21T01:08:48.818Z,8.38
2018-09-21T01:11:17.780Z,8.33
2018-09-21T01:13:46.607Z,9.03
2018-09-21T01:16:15.490Z,7.55
2018-09-21T01:18:44.454Z,7.87
2018-09-21T01:21:13.434Z,8.60
2018-09-21T01:23:42.370Z,8.93
2018-09-21T01:26:11.329Z,9.98
2018-09-21T01:28:40.326Z,9.73
2018-09-21T01:31:09.240Z,10.15
2018-09-21T01:33:38.318Z,9.60
2018-09-21T01:36:07.264Z,11.50
2018-09-21T01:38:36.177Z,8.03
2018-09-21T01:41:05.078Z,9.63
2018-09-21T01:43:34.090Z,7.72
2018-09-21T01:46:03.018Z,8.38
2018-09-21T01:48:32.082Z,8.28
2018-09-21T01:51:01.026Z,8.93
2018-09-21T01:53:29.986Z,11.73
2018-09-21T01:55:59.138Z,9.00
2018-09-21T01:58:28.067Z,8.48
2018-09-21T02:00:56.997Z,9.60
2018-09-21T02:03:25.959Z,8.73
2018-09-21T02:05:55.606Z,10.55
2018-09-21T02:08:24.577Z,10.58
2018-09-21T02:10:53.536Z,8.83
2018-09-21T02:13:22.952Z,10.03
2018-09-21T02:15:52.048Z,7.90
2018-09-21T02:18:20.997Z,11.12
2018-09-21T02:20:49.943Z,10.00
2018-09-21T02:23:18.854Z,7.83
2018-09-21T02:25:47.778Z,10.63
2018-09-21T02:28:16.891Z,9.15
2018-09-21T02:30:45.800Z,8.85
2018-09-21T02:33:14.839Z,10.50
2018-09-21T02:35:43.748Z,8.90
2018-09-21T02:38:12.693Z,10.53
2018-09-21T02:40:41.618Z,11.35
2018-09-21T02:43:10.623Z,9.58
2018-09-21T02:45:39.533Z,9.70
2018-09-21T02:48:08.507Z,8.48
2018-09-21T02:50:37.420Z,9.60
2018-09-21T02:53:06.318Z,9.03
2018-09-21T02:55:35.306Z,11.43
2018-09-21T02:58:04.594Z,9.88
2018-09-21T03:00:34.498Z,11.97
2018-09-21T03:03:03.967Z,12.60
2018-09-21T03:05:32.918Z,8.38
2018-09-21T03:08:01.851Z,8.40
2018-09-21T03:10:30.890Z,8.75
2018-09-21T03:12:59.888Z,33.42
2018-09-21T03:15:29.244Z,10.23
2018-09-21T03:17:58.182Z,8.05
2018-09-21T03:20:27.075Z,7.60
2018-09-21T03:22:55.996Z,9.15
2018-09-21T03:25:24.902Z,8.68
2018-09-21T03:27:53.845Z,8.50
2018-09-21T03:30:22.763Z,11.93
2018-09-21T03:32:51.666Z,7.17
2018-09-21T03:35:20.647Z,9.40
2018-09-21T03:37:49.717Z,8.50
2018-09-21T03:40:19.092Z,8.88
2018-09-21T03:42:48.022Z,7.97
2018-09-21T03:45:16.989Z,8.05
2018-09-21T03:47:46.107Z,7.85
2018-09-21T03:50:15.007Z,7.95
2018-09-21T03:52:43.895Z,7.22
2018-09-21T03:55:12.812Z,9.30
2018-09-21T03:57:41.979Z,8.73
2018-09-21T04:00:11.045Z,9.08
2018-09-21T04:02:39.958Z,8.58
2018-09-21T04:05:08.898Z,10.00
2018-09-21T04:07:37.954Z,7.95
2018-09-21T04:10:06.902Z,11.18
2018-09-21T04:12:35.927Z,8.13
2018-09-21T04:15:05.966Z,7.20
2018-09-21T04:17:34.858Z,8.18
2018-09-21T04:20:03.936Z,8.15
2018-09-21T04:22:33.436Z,7.15
2018-09-21T04:25:03.789Z,7.87
2018-09-21T04:27:32.719Z,9.53
2018-09-21T04:30:01.673Z,8.05
2018-09-21T04:32:30.646Z,8.20
2018-09-21T04:34:59.602Z,7.75
2018-09-21T04:37:28.514Z,11.22
2018-09-21T04:39:57.442Z,8.63
2018-09-21T04:42:26.331Z,7.72
2018-09-21T04:44:55.259Z,9.75
2018-09-21T04:47:24.221Z,13.15
2018-09-21T04:49:53.252Z,15.08
2018-09-21T04:52:22.200Z,10.30
2018-09-21T04:54:51.275Z,7.72
2018-09-21T04:57:20.396Z,9.80
2018-09-21T04:59:49.345Z,8.55
2018-09-21T05:02:18.419Z,7.92
2018-09-21T05:04:47.345Z,10.50
2018-09-21T05:07:16.241Z,8.50
2018-09-21T05:09:45.296Z,8.40
2018-09-21T05:12:14.263Z,8.55
2018-09-21T05:14:43.205Z,10.58
2018-09-21T05:17:12.091Z,7.67
2018-09-21T05:19:41.107Z,10.10
2018-09-21T05:22:10.253Z,10.90
2018-09-21T05:24:39.194Z,9.78
2018-09-21T05:27:08.173Z,8.38
2018-09-21T05:29:37.130Z,12.03
2018-09-21T05:32:06.270Z,12.00
2018-09-21T05:34:35.335Z,10.30
2018-09-21T05:37:04.459Z,10.93
2018-09-21T05:39:33.392Z,8.85
2018-09-21T05:42:02.434Z,8.08
2018-09-21T05:44:31.586Z,10.90
2018-09-21T05:47:00.531Z,8.83
2018-09-21T05:49:29.834Z,8.15
2018-09-21T05:51:58.846Z,7.95
2018-09-21T05:54:27.790Z,8.03
2018-09-21T05:56:56.816Z,8.43
2018-09-21T05:59:26.093Z,10.10
2018-09-21T06:01:55.174Z,9.43
2018-09-21T06:04:24.331Z,12.73
2018-09-21T06:06:53.376Z,12.53
2018-09-21T06:09:22.317Z,10.55
2018-09-21T06:11:51.234Z,10.30
2018-09-21T06:14:20.179Z,11.80
2018-09-21T06:16:49.164Z,8.88
2018-09-21T06:19:18.220Z,11.55
2018-09-21T06:21:47.280Z,8.08
2018-09-21T06:24:16.331Z,9.85
2018-09-21T06:26:45.422Z,8.63
2018-09-21T06:29:14.400Z,11.93
2018-09-21T06:31:43.085Z,7.70
2018-09-21T06:34:11.981Z,8.20
2018-09-21T06:36:40.883Z,8.93
2018-09-21T06:39:11.215Z,8.45
2018-09-21T06:41:40.420Z,10.90
2018-09-21T06:44:09.635Z,11.97
2018-09-21T06:46:38.843Z,9.08
2018-09-21T06:49:07.569Z,7.37
2018-09-21T06:51:36.266Z,8.97
2018-09-21T06:54:05.369Z,7.90
2018-09-21T06:56:35.177Z,8.43
2018-09-21T06:59:04.121Z,9.75
2018-09-21T07:01:33.222Z,8.23
2018-09-21T07:04:02.169Z,7.53
2018-09-21T07:06:31.077Z,8.27
2018-09-21T07:09:00.078Z,9.63
2018-09-21T07:11:28.769Z,6.90
2018-09-21T07:13:57.692Z,10.13
2018-09-21T07:16:26.697Z,8.73
2018-09-21T07:18:55.388Z,7.03
2018-09-21T07:21:24.365Z,8.63
2018-09-21T07:23:53.304Z,11.35
2018-09-21T07:26:22.414Z,9.15
2018-09-21T07:28:51.164Z,6.80
2018-09-21T07:31:20.115Z,12.23
2018-09-21T07:33:49.214Z,8.27
2018-09-21T07:36:18.199Z,8.30
2018-09-21T07:38:46.812Z,6.43
2018-09-21T07:41:15.516Z,9.83
2018-09-21T07:43:44.169Z,8.87
2018-09-21T07:46:12.827Z,7.80
2018-09-21T07:48:41.565Z,8.47
2018-09-21T07:51:10.256Z,6.83
2018-09-21T07:53:39.245Z,7.20
2018-09-21T07:56:07.964Z,7.30
2018-09-21T07:58:36.643Z,17.47
2018-09-21T08:01:05.327Z,9.00
2018-09-21T08:03:33.967Z,8.03
2018-09-21T08:06:03.108Z,9.23
2018-09-21T08:08:31.975Z,11.80
2018-09-21T08:11:00.608Z,10.47
2018-09-21T08:13:29.384Z,9.43
2018-09-21T08:15:58.123Z,7.83
2018-09-21T08:18:26.782Z,11.00
2018-09-21T08:20:55.465Z,7.03
2018-09-21T08:23:24.221Z,9.33
2018-09-21T08:25:52.874Z,7.97
2018-09-21T08:28:21.534Z,14.60
2018-09-21T08:30:50.259Z,10.07
2018-09-21T08:33:19.092Z,9.60
2018-09-21T08:35:47.999Z,9.67
2018-09-21T08:38:16.646Z,8.80
2018-09-21T08:40:45.261Z,8.80
2018-09-21T08:43:14.087Z,9.40
2018-09-21T08:45:43.157Z,8.33
2018-09-21T08:48:11.973Z,8.27
2018-09-21T08:50:40.758Z,13.03
2018-09-21T08:53:09.390Z,10.43
2018-09-21T08:55:38.039Z,14.43
2018-09-21T08:58:06.668Z,7.30
2018-09-21T09:00:35.400Z,7.03
2018-09-21T09:03:04.096Z,7.17
2018-09-21T09:05:33.074Z,10.47
2018-09-21T09:08:01.778Z,11.77
2018-09-21T09:10:30.484Z,8.93
2018-09-21T09:12:59.132Z,10.23
2018-09-21T09:15:27.794Z,7.13
2018-09-21T09:17:56.515Z,10.67
2018-09-21T09:20:25.166Z,12.97
2018-09-21T09:22:53.822Z,8.73
2018-09-21T09:25:22.449Z,8.03
2018-09-21T09:27:51.270Z,9.67
2018-09-21T09:30:20.389Z,9.30
2018-09-21T09:32:49.240Z,8.53
2018-09-21T09:35:17.856Z,6.80
2018-09-21T09:37:46.467Z,8.00
2018-09-21T09:40:15.122Z,9.13
2018-09-21T09:42:43.912Z,7.23
2018-09-21T09:45:12.687Z,6.47
2018-09-21T09:47:41.391Z,10.10
2018-09-21T09:50:10.061Z,10.03
2018-09-21T09:52:39.205Z,7.80
2018-09-21T09:55:07.893Z,10.20
2018-09-21T09:57:36.573Z,6.63
2018-09-21T10:00:06.459Z,10.67
2018-09-21T10:02:35.548Z,11.43
2018-09-21T10:05:04.683Z,7.67
2018-09-21T10:07:33.417Z,25.10
2018-09-21T10:10:02.178Z,12.13
2018-09-21T10:12:30.834Z,9.47
2018-09-21T10:14:59.472Z,7.13
2018-09-21T10:17:28.201Z,13.73
2018-09-21T10:19:56.908Z,9.17
2018-09-21T10:22:25.607Z,9.83
2018-09-21T10:24:54.275Z,10.73
2018-09-21T10:27:22.998Z,10.83
2018-09-21T10:29:51.874Z,9.43
2018-09-21T10:32:20.720Z,6.37
2018-09-21T10:34:49.374Z,8.53
2018-09-21T10:37:18.111Z,10.07
2018-09-21T10:39:46.763Z,13.60
2018-09-21T10:42:15.442Z,11.77
2018-09-21T10:44:44.092Z,9.37
2018-09-21T10:47:12.720Z,11.33
2018-09-21T10:49:41.447Z,14.23
2018-09-21T10:52:10.123Z,14.03
2018-09-21T10:54:38.809Z,12.37
2018-09-21T10:57:07.499Z,13.07
2018-09-21T10:59:36.209Z,18.17
2018-09-21T11:02:05.248Z,12.67
2018-09-21T11:04:33.882Z,7.20
2018-09-21T11:07:02.596Z,9.43
2018-09-21T11:09:31.269Z,13.97
2018-09-21T11:11:59.957Z,10.67
2018-09-21T11:14:28.623Z,14.77
2018-09-21T11:16:57.325Z,14.13
2018-09-21T11:19:26.552Z,9.57
2018-09-21T11:21:55.301Z,10.97
2018-09-21T11:24:24.533Z,12.03
2018-09-21T11:26:53.222Z,11.03
2018-09-21T11:29:21.860Z,9.13
2018-09-21T11:31:50.569Z,11.07
2018-09-21T11:34:19.345Z,11.20
2018-09-21T11:36:48.024Z,10.73
2018-09-21T11:39:16.715Z,10.97
2018-09-21T11:41:45.355Z,6.23
2018-09-21T11:44:14.027Z,8.00
2018-09-21T11:46:42.699Z,10.63
2018-09-21T11:49:11.566Z,6.47
2018-09-21T11:51:40.359Z,13.23
2018-09-21T11:54:09.026Z,9.47
2018-09-21T11:56:37.742Z,8.53
2018-09-21T11:59:06.432Z,8.97
2018-09-21T12:01:35.262Z,8.70
2018-09-21T12:04:04.709Z,8.13
2018-09-21T12:06:33.413Z,12.90
2018-09-21T12:09:02.108Z,9.87
2018-09-21T12:11:30.777Z,10.33
2018-09-21T12:13:59.444Z,9.53
2018-09-21T12:16:28.152Z,8.80
2018-09-21T12:18:56.894Z,9.03
2018-09-21T12:21:25.599Z,13.00
2018-09-21T12:23:54.263Z,10.70
2018-09-21T12:26:23.287Z,8.73
2018-09-21T12:28:51.931Z,8.73
2018-09-21T12:31:20.666Z,6.97
2018-09-21T12:33:49.337Z,10.27
2018-09-21T12:36:18.148Z,11.07
2018-09-21T12:38:47.003Z,12.57
2018-09-21T12:41:15.865Z,7.73
2018-09-21T12:43:44.546Z,10.50
2018-09-21T12:46:17.011Z,11.67
2018-09-21T12:48:45.716Z,16.63
2018-09-21T12:51:14.379Z,12.23
2018-09-21T12:53:43.086Z,12.00
2018-09-21T12:56:11.823Z,8.90
2018-09-21T12:58:40.504Z,11.67
2018-09-21T13:01:09.306Z,7.67
2018-09-21T13:03:37.952Z,10.37
2018-09-21T13:06:06.643Z,9.53
2018-09-21T13:08:35.370Z,10.30
2018-09-21T13:11:04.073Z,11.93
2018-09-21T13:13:32.760Z,12.57
2018-09-21T13:16:01.433Z,11.20
2018-09-21T13:18:30.056Z,9.10
2018-09-21T13:20:58.711Z,9.33
2018-09-21T13:23:27.443Z,10.57
2018-09-21T13:25:56.145Z,10.30
2018-09-21T13:28:24.862Z,10.93
2018-09-21T13:30:53.522Z,9.70
2018-09-21T13:33:22.226Z,10.00
2018-09-21T13:35:50.964Z,10.50
2018-09-21T13:38:19.664Z,7.90
2018-09-21T13:40:48.316Z,12.93
2018-09-21T13:43:16.975Z,10.30
2018-09-21T13:45:45.614Z,8.33
2018-09-21T13:48:14.334Z,7.90
2018-09-21T13:50:43.024Z,8.13
2018-09-21T13:53:11.742Z,12.53
2018-09-21T13:55:40.403Z,7.93
2018-09-21T13:58:09.100Z,8.67
2018-09-21T14:00:37.836Z,9.43
2018-09-21T14:03:06.584Z,8.10
2018-09-21T14:05:35.325Z,6.87
2018-09-21T14:08:04.124Z,8.23
2018-09-21T14:10:32.807Z,9.00
2018-09-21T14:13:01.453Z,10.40
2018-09-21T14:15:30.105Z,7.63
2018-09-21T14:17:58.823Z,13.83
2018-09-21T14:20:27.484Z,11.43
2018-09-21T14:22:56.233Z,8.17
2018-09-21T14:25:24.959Z,14.17
2018-09-21T14:27:53.877Z,16.47
2018-09-21T14:30:22.615Z,23.33
2018-09-21T14:32:52.251Z,25.63
2018-09-21T14:35:21.405Z,18.27
2018-09-21T14:37:50.068Z,11.37
2018-09-21T14:40:19.186Z,15.07
2018-09-21T14:42:47.841Z,8.77
2018-09-21T14:45:16.496Z,12.90
2018-09-21T14:47:45.223Z,8.70
2018-09-21T14:50:14.065Z,11.60
2018-09-21T14:52:42.752Z,8.87
2018-09-21T14:55:11.397Z,9.80
2018-09-21T14:57:40.053Z,4.50
2018-09-21T15:00:08.770Z,6.80
2018-09-21T15:02:37.405Z,13.27
2018-09-21T15:05:06.147Z,21.07
2018-09-21T15:07:35.153Z,34.40
2018-09-21T15:10:03.842Z,20.57
2018-09-21T15:12:32.694Z,19.83
2018-09-21T15:15:01.681Z,18.07
2018-09-21T15:17:30.928Z,17.57
2018-09-21T15:19:59.931Z,18.70
2018-09-21T15:22:28.883Z,17.32
2018-09-21T15:24:57.809Z,11.33
2018-09-21T15:27:26.819Z,14.07
2018-09-21T15:29:55.775Z,9.63
2018-09-21T15:32:24.752Z,10.45
2018-09-21T15:34:53.699Z,8.80
2018-09-21T15:37:22.648Z,4.97
2018-09-21T15:39:51.613Z,10.03
2018-09-21T15:42:20.567Z,4.35
2018-09-21T15:44:49.605Z,8.03
2018-09-21T15:47:18.636Z,3.95
2018-09-21T15:49:47.760Z,4.78
2018-09-21T15:52:16.689Z,4.87
2018-09-21T15:54:45.647Z,2.95
2018-09-21T15:57:14.693Z,3.98
2018-09-21T15:59:43.645Z,2.75
2018-09-21T16:02:12.630Z,3.80
2018-09-21T16:04:41.555Z,3.62
2018-09-21T16:07:10.511Z,4.53
2018-09-21T16:09:41.350Z,3.75
2018-09-21T16:12:10.334Z,1.85
2018-09-21T16:14:39.291Z,1.30
2018-09-21T16:17:08.185Z,3.80
2018-09-21T16:19:43.437Z,1.92
2018-09-21T16:22:12.349Z,3.52
2018-09-21T16:24:41.282Z,3.25
2018-09-21T16:27:10.233Z,2.98
2018-09-21T16:29:39.201Z,1.15
2018-09-21T16:32:08.164Z,1.95
2018-09-21T16:34:37.185Z,2.40
2018-09-21T16:37:06.159Z,2.05
2018-09-21T16:39:35.135Z,1.10
2018-09-21T16:42:04.081Z,2.10
2018-09-21T16:44:33.132Z,2.60
2018-09-21T16:47:02.197Z,1.75
2018-09-21T16:49:31.162Z,2.40
2018-09-21T16:52:00.084Z,2.42
2018-09-21T16:54:29.011Z,2.45
2018-09-21T16:56:57.959Z,4.55
2018-09-21T16:59:26.952Z,1.98
2018-09-21T17:01:55.903Z,2.33
2018-09-21T17:04:24.885Z,2.90
2018-09-21T17:06:53.952Z,3.25
2018-09-21T17:09:22.885Z,3.70
2018-09-21T17:11:51.832Z,3.15
2018-09-21T17:14:20.804Z,4.28
2018-09-21T17:16:49.728Z,3.98
2018-09-21T17:19:18.692Z,4.40
2018-09-21T17:21:47.654Z,2.95
2018-09-21T17:24:16.582Z,5.83
2018-09-21T17:26:45.560Z,3.37
2018-09-21T17:29:14.664Z,6.25
2018-09-21T17:31:43.671Z,4.72
2018-09-21T17:34:12.751Z,3.42
2018-09-21T17:36:41.670Z,3.70
2018-09-21T17:39:12.144Z,4.75
2018-09-21T17:41:41.672Z,2.83
2018-09-21T17:44:10.822Z,4.22
2018-09-21T17:46:39.749Z,2.92
2018-09-21T17:49:08.655Z,3.92
2018-09-21T17:51:37.726Z,4.75
2018-09-21T17:54:06.618Z,4.55
2018-09-21T17:56:35.614Z,5.58
2018-09-21T17:59:04.874Z,5.00
2018-09-21T18:01:33.846Z,5.53
2018-09-21T18:04:02.792Z,4.33
2018-09-21T18:06:31.741Z,6.50
2018-09-21T18:09:00.692Z,6.20
2018-09-21T18:11:29.664Z,5.37
2018-09-21T18:13:58.587Z,6.08
2018-09-21T18:16:27.590Z,5.55
2018-09-21T18:18:56.671Z,4.75
2018-09-21T18:21:25.605Z,7.30
2018-09-21T18:23:54.534Z,7.08
2018-09-21T18:26:23.502Z,7.80
2018-09-21T18:28:52.423Z,5.55
2018-09-21T18:31:21.371Z,7.85
2018-09-21T18:33:50.559Z,7.58
2018-09-21T18:36:19.532Z,6.85
2018-09-21T18:38:48.454Z,6.72
2018-09-21T18:41:17.415Z,8.03
2018-09-21T18:43:46.428Z,7.50
2018-09-21T18:46:15.352Z,7.05
2018-09-21T18:48:44.347Z,6.00
2018-09-21T18:51:13.335Z,7.37
2018-09-21T18:53:42.291Z,5.28
2018-09-21T18:56:11.248Z,4.17
2018-09-21T18:58:40.321Z,6.65
2018-09-21T19:01:09.362Z,4.03
2018-09-21T19:03:38.315Z,6.20
2018-09-21T19:06:07.307Z,5.92
2018-09-21T19:08:36.392Z,4.45
2018-09-21T19:11:05.435Z,3.25
2018-09-21T19:13:34.537Z,3.80
2018-09-21T19:16:03.518Z,7.60
2018-09-21T19:18:32.491Z,6.03
2018-09-21T19:21:01.452Z,6.17
2018-09-21T19:23:30.427Z,6.92
2018-09-21T19:25:59.596Z,3.85
2018-09-21T19:28:28.560Z,3.12
2018-09-21T19:30:57.592Z,4.50
2018-09-21T19:33:26.522Z,5.08
2018-09-21T19:35:55.521Z,3.65
2018-09-21T19:38:24.528Z,6.25
2018-09-21T19:40:53.682Z,5.37
2018-09-21T19:43:22.777Z,3.70
2018-09-21T19:45:51.754Z,4.67
2018-09-21T19:48:20.792Z,6.67
2018-09-21T19:50:49.880Z,7.42
2018-09-21T19:53:18.823Z,7.15
2018-09-21T19:55:47.717Z,5.00
2018-09-21T19:58:16.685Z,6.67
2018-09-21T20:00:45.844Z,6.22
2018-09-21T20:03:14.983Z,5.12
2018-09-21T20:05:43.960Z,7.22
2018-09-21T20:08:12.869Z,4.97
2018-09-21T20:10:41.803Z,6.55
2018-09-21T20:13:10.778Z,6.70
2018-09-21T20:15:39.747Z,8.70
2018-09-21T20:18:08.699Z,8.90
2018-09-21T20:20:37.867Z,6.80
2018-09-21T20:23:06.865Z,6.50
2018-09-21T20:25:35.783Z,6.60
2018-09-21T20:28:05.667Z,5.17
2018-09-21T20:30:39.942Z,8.30
2018-09-21T20:33:14.127Z,6.53
2018-09-21T20:35:43.159Z,4.97
2018-09-21T20:38:12.106Z,6.62
2018-09-21T20:40:41.053Z,6.65
2018-09-21T20:43:10.028Z,6.05
2018-09-21T20:45:39.014Z,7.83
2018-09-21T20:48:08.330Z,8.58
2018-09-21T20:50:37.249Z,8.53
2018-09-21T20:53:06.275Z,10.65
2018-09-21T20:55:35.208Z,7.80
2018-09-21T20:58:04.159Z,7.65
2018-09-21T21:00:33.201Z,8.35
2018-09-21T21:03:02.115Z,7.90
2018-09-21T21:05:31.030Z,7.03
2018-09-21T21:07:59.957Z,8.60
2018-09-21T21:10:28.950Z,8.40
2018-09-21T21:12:58.003Z,9.43
2018-09-21T21:15:26.935Z,11.73
2018-09-21T21:17:55.887Z,7.95
2018-09-21T21:20:24.832Z,7.28
2018-09-21T21:22:53.854Z,7.25
2018-09-21T21:25:22.792Z,7.90
2018-09-21T21:27:51.786Z,5.97
2018-09-21T21:30:20.745Z,10.70
2018-09-21T21:32:49.673Z,7.47
2018-09-21T21:35:18.609Z,6.35
2018-09-21T21:37:47.554Z,6.60
2018-09-21T21:40:16.479Z,6.47
2018-09-21T21:42:45.387Z,9.18
2018-09-21T21:45:14.380Z,8.48
2018-09-21T21:47:43.398Z,5.22
2018-09-21T21:50:12.321Z,7.17
2018-09-21T21:52:41.276Z,7.33
2018-09-21T21:55:10.214Z,7.00
2018-09-21T21:57:39.157Z,5.35
2018-09-21T22:00:09.057Z,8.13
2018-09-21T22:02:38.031Z,5.35
2018-09-21T22:05:07.001Z,5.75
2018-09-21T22:07:37.155Z,6.50
2018-09-21T22:10:07.417Z,4.00
2018-09-21T22:12:41.603Z,4.28
2018-09-21T22:15:17.134Z,5.12
2018-09-21T22:17:46.267Z,5.53
2018-09-21T22:20:15.311Z,3.67
2018-09-21T22:22:44.202Z,4.92
2018-09-21T22:25:13.179Z,5.30
2018-09-21T22:27:42.648Z,2.83
2018-09-21T22:30:11.544Z,5.85
2018-09-21T22:32:40.797Z,5.95
2018-09-21T22:35:09.724Z,5.00
2018-09-21T22:37:38.626Z,5.03
2018-09-21T22:40:07.878Z,4.65
2018-09-21T22:42:36.788Z,3.00
2018-09-21T22:45:05.802Z,3.08
2018-09-21T22:47:34.830Z,5.53
2018-09-21T22:50:03.832Z,4.35
2018-09-21T22:52:32.772Z,3.58
2018-09-21T22:55:02.041Z,3.37
2018-09-21T22:57:30.914Z,3.92
2018-09-21T22:59:59.803Z,3.58
2018-09-21T23:02:28.726Z,4.20
2018-09-21T23:04:57.815Z,3.02
2018-09-21T23:07:26.701Z,2.98
2018-09-21T23:09:55.645Z,3.33
2018-09-21T23:12:24.539Z,4.47
2018-09-21T23:14:53.413Z,2.72
2018-09-21T23:17:22.352Z,2.55
2018-09-21T23:19:51.245Z,2.77
2018-09-21T23:22:20.176Z,4.42
2018-09-21T23:24:49.070Z,3.17
2018-09-21T23:27:17.951Z,2.58
2018-09-21T23:29:46.875Z,2.72
2018-09-21T23:32:15.797Z,2.85
2018-09-21T23:34:44.693Z,5.45
2018-09-21T23:37:13.598Z,2.25
2018-09-21T23:39:42.485Z,2.35
2018-09-21T23:42:11.365Z,2.95
2018-09-21T23:44:40.322Z,4.45
2018-09-21T23:47:09.204Z,1.10
2018-09-21T23:49:38.105Z,1.92
2018-09-21T23:52:07.041Z,2.08
2018-09-21T23:54:35.945Z,2.10
2018-09-21T23:57:04.880Z,5.22
2018-09-21T23:59:33.760Z,2.72
